sensor_id;sensor_type;location;lat;lon;timestamp;temperature;humidity
39983;DHT22;25670;44.782;10.356;2023-05-16T00:01:07;14.30;99.90
39983;DHT22;25670;44.782;10.356;2023-05-16T00:03:34;14.40;99.90
39983;DHT22;25670;44.782;10.356;2023-05-16T00:06:01;14.50;99.90
39983;DHT22;25670;44.782;10.356;2023-05-16T00:08:28;14.40;99.90
39983;DHT22;25670;44.782;10.356;2023-05-16T00:10:54;14.40;99.90
39983;DHT22;25670;44.782;10.356;2023-05-16T00:13:20;14.40;99.90
39983;DHT22;25670;44.782;10.356;2023-05-16T00:15:54;14.40;99.90
39983;DHT22;25670;44.782;10.356;2023-05-16T00:18:21;14.50;99.90
39983;DHT22;25670;44.782;10.356;2023-05-16T00:23:17;14.60;99.90
39983;DHT22;25670;44.782;10.356;2023-05-16T00:25:43;14.60;99.90
39983;DHT22;25670;44.782;10.356;2023-05-16T00:28:09;14.50;99.90
39983;DHT22;25670;44.782;10.356;2023-05-16T00:30:36;14.50;99.90
39983;DHT22;25670;44.782;10.356;2023-05-16T00:33:02;14.50;99.90
39983;DHT22;25670;44.782;10.356;2023-05-16T00:35:29;14.50;99.90
39983;DHT22;25670;44.782;10.356;2023-05-16T00:37:55;14.50;99.90
39983;DHT22;25670;44.782;10.356;2023-05-16T00:42:48;14.60;99.90
39983;DHT22;25670;44.782;10.356;2023-05-16T00:45:14;14.60;99.90
39983;DHT22;25670;44.782;10.356;2023-05-16T00:47:40;14.60;99.90
39983;DHT22;25670;44.782;10.356;2023-05-16T00:50:07;14.60;99.90
39983;DHT22;25670;44.782;10.356;2023-05-16T00:52:33;14.60;99.90
39983;DHT22;25670;44.782;10.356;2023-05-16T00:55:02;14.50;99.90
39983;DHT22;25670;44.782;10.356;2023-05-16T00:57:29;14.50;99.90
39983;DHT22;25670;44.782;10.356;2023-05-16T00:59:55;14.50;99.90
39983;DHT22;25670;44.782;10.356;2023-05-16T01:02:22;14.60;99.90
39983;DHT22;25670;44.782;10.356;2023-05-16T01:04:53;14.60;99.90
39983;DHT22;25670;44.782;10.356;2023-05-16T01:07:19;14.60;99.90
39983;DHT22;25670;44.782;10.356;2023-05-16T01:09:46;14.70;99.90
39983;DHT22;25670;44.782;10.356;2023-05-16T01:15:11;14.70;99.90
39983;DHT22;25670;44.782;10.356;2023-05-16T01:20:48;14.50;99.90
39983;DHT22;25670;44.782;10.356;2023-05-16T01:23:32;14.50;99.90
39983;DHT22;25670;44.782;10.356;2023-05-16T01:26:24;14.50;99.90
39983;DHT22;25670;44.782;10.356;2023-05-16T01:28:52;14.40;99.90
39983;DHT22;25670;44.782;10.356;2023-05-16T01:31:20;14.30;99.90
39983;DHT22;25670;44.782;10.356;2023-05-16T01:33:46;14.30;99.90
39983;DHT22;25670;44.782;10.356;2023-05-16T01:36:33;14.30;99.90
39983;DHT22;25670;44.782;10.356;2023-05-16T01:39:19;14.30;99.90
39983;DHT22;25670;44.782;10.356;2023-05-16T01:42:07;14.30;99.90
39983;DHT22;25670;44.782;10.356;2023-05-16T01:44:55;14.30;99.90
39983;DHT22;25670;44.782;10.356;2023-05-16T01:47:26;14.30;99.90
39983;DHT22;25670;44.782;10.356;2023-05-16T01:55:02;14.40;99.90
39983;DHT22;25670;44.782;10.356;2023-05-16T01:57:29;14.40;99.90
39983;DHT22;25670;44.782;10.356;2023-05-16T01:59:59;14.40;99.90
39983;DHT22;25670;44.782;10.356;2023-05-16T02:02:26;14.50;99.90
39983;DHT22;25670;44.782;10.356;2023-05-16T02:04:52;14.50;99.90
39983;DHT22;25670;44.782;10.356;2023-05-16T02:07:18;14.50;99.90
39983;DHT22;25670;44.782;10.356;2023-05-16T02:09:44;14.50;99.90
39983;DHT22;25670;44.782;10.356;2023-05-16T02:12:11;14.50;99.90
39983;DHT22;25670;44.782;10.356;2023-05-16T02:14:37;14.50;99.90
39983;DHT22;25670;44.782;10.356;2023-05-16T02:17:03;14.60;99.90
39983;DHT22;25670;44.782;10.356;2023-05-16T02:21:56;14.60;99.90
39983;DHT22;25670;44.782;10.356;2023-05-16T02:24:22;14.60;99.90
39983;DHT22;25670;44.782;10.356;2023-05-16T02:26:48;14.60;99.90
39983;DHT22;25670;44.782;10.356;2023-05-16T02:29:15;14.60;99.90
39983;DHT22;25670;44.782;10.356;2023-05-16T02:31:41;14.70;99.90
39983;DHT22;25670;44.782;10.356;2023-05-16T02:34:08;14.20;99.90
39983;DHT22;25670;44.782;10.356;2023-05-16T02:36:34;14.70;99.90
39983;DHT22;25670;44.782;10.356;2023-05-16T02:39:01;14.70;99.90
39983;DHT22;25670;44.782;10.356;2023-05-16T02:41:29;14.70;99.90
39983;DHT22;25670;44.782;10.356;2023-05-16T02:43:56;14.60;99.90
39983;DHT22;25670;44.782;10.356;2023-05-16T02:46:29;14.50;99.90
39983;DHT22;25670;44.782;10.356;2023-05-16T02:48:56;14.50;99.90
39983;DHT22;25670;44.782;10.356;2023-05-16T02:51:24;14.60;99.90
39983;DHT22;25670;44.782;10.356;2023-05-16T02:53:51;14.60;99.90
39983;DHT22;25670;44.782;10.356;2023-05-16T02:56:17;14.60;99.90
39983;DHT22;25670;44.782;10.356;2023-05-16T02:58:46;14.60;99.90
39983;DHT22;25670;44.782;10.356;2023-05-16T03:01:13;14.60;99.90
39983;DHT22;25670;44.782;10.356;2023-05-16T03:03:40;14.70;99.90
39983;DHT22;25670;44.782;10.356;2023-05-16T03:06:07;14.70;99.90
39983;DHT22;25670;44.782;10.356;2023-05-16T03:08:34;14.80;99.90
39983;DHT22;25670;44.782;10.356;2023-05-16T03:11:00;14.70;99.90
39983;DHT22;25670;44.782;10.356;2023-05-16T03:13:26;14.80;99.90
39983;DHT22;25670;44.782;10.356;2023-05-16T03:15:57;14.80;99.90
39983;DHT22;25670;44.782;10.356;2023-05-16T03:18:23;14.70;99.90
39983;DHT22;25670;44.782;10.356;2023-05-16T03:23:19;14.60;99.90
39983;DHT22;25670;44.782;10.356;2023-05-16T03:25:45;14.50;99.90
39983;DHT22;25670;44.782;10.356;2023-05-16T03:30:38;14.50;99.90
39983;DHT22;25670;44.782;10.356;2023-05-16T03:33:04;14.40;99.90
39983;DHT22;25670;44.782;10.356;2023-05-16T03:35:31;14.30;99.90
39983;DHT22;25670;44.782;10.356;2023-05-16T03:37:58;14.20;99.90
39983;DHT22;25670;44.782;10.356;2023-05-16T03:40:24;14.10;99.90
39983;DHT22;25670;44.782;10.356;2023-05-16T03:42:51;14.10;99.90
39983;DHT22;25670;44.782;10.356;2023-05-16T03:45:17;14.20;99.90
39983;DHT22;25670;44.782;10.356;2023-05-16T03:47:43;14.20;99.90
39983;DHT22;25670;44.782;10.356;2023-05-16T03:50:10;14.30;99.90
39983;DHT22;25670;44.782;10.356;2023-05-16T03:52:36;14.30;99.90
39983;DHT22;25670;44.782;10.356;2023-05-16T03:55:03;14.30;99.90
39983;DHT22;25670;44.782;10.356;2023-05-16T03:57:31;14.30;99.90
39983;DHT22;25670;44.782;10.356;2023-05-16T03:59:57;14.40;99.90
39983;DHT22;25670;44.782;10.356;2023-05-16T04:02:24;14.40;99.90
39983;DHT22;25670;44.782;10.356;2023-05-16T04:04:50;14.40;99.90
39983;DHT22;25670;44.782;10.356;2023-05-16T04:07:16;14.40;99.90
39983;DHT22;25670;44.782;10.356;2023-05-16T04:09:43;14.50;99.90
39983;DHT22;25670;44.782;10.356;2023-05-16T04:12:09;14.60;99.90
39983;DHT22;25670;44.782;10.356;2023-05-16T04:14:35;14.60;99.90
39983;DHT22;25670;44.782;10.356;2023-05-16T04:17:01;14.60;99.90
39983;DHT22;25670;44.782;10.356;2023-05-16T04:19:27;14.60;99.90
39983;DHT22;25670;44.782;10.356;2023-05-16T04:21:53;14.60;99.90
39983;DHT22;25670;44.782;10.356;2023-05-16T04:24:20;14.60;99.90
39983;DHT22;25670;44.782;10.356;2023-05-16T04:26:51;14.60;99.90
39983;DHT22;25670;44.782;10.356;2023-05-16T04:29:17;14.60;99.90
39983;DHT22;25670;44.782;10.356;2023-05-16T04:31:43;14.60;99.90
39983;DHT22;25670;44.782;10.356;2023-05-16T04:34:09;14.60;99.90
39983;DHT22;25670;44.782;10.356;2023-05-16T04:36:37;14.60;99.90
39983;DHT22;25670;44.782;10.356;2023-05-16T04:39:03;14.60;99.90
39983;DHT22;25670;44.782;10.356;2023-05-16T04:41:29;14.60;99.90
39983;DHT22;25670;44.782;10.356;2023-05-16T04:43:56;14.60;99.90
39983;DHT22;25670;44.782;10.356;2023-05-16T04:46:22;14.60;99.90
39983;DHT22;25670;44.782;10.356;2023-05-16T04:48:48;14.60;99.90
39983;DHT22;25670;44.782;10.356;2023-05-16T04:51:14;14.60;99.90
39983;DHT22;25670;44.782;10.356;2023-05-16T04:53:40;14.60;99.90
39983;DHT22;25670;44.782;10.356;2023-05-16T04:56:07;14.70;99.90
39983;DHT22;25670;44.782;10.356;2023-05-16T04:58:33;14.80;99.90
39983;DHT22;25670;44.782;10.356;2023-05-16T05:00:59;14.80;99.90
39983;DHT22;25670;44.782;10.356;2023-05-16T05:03:25;14.80;99.90
39983;DHT22;25670;44.782;10.356;2023-05-16T05:05:51;14.80;99.90
39983;DHT22;25670;44.782;10.356;2023-05-16T05:08:18;14.80;99.90
39983;DHT22;25670;44.782;10.356;2023-05-16T05:10:44;14.80;99.90
39983;DHT22;25670;44.782;10.356;2023-05-16T05:13:10;14.70;99.90
39983;DHT22;25670;44.782;10.356;2023-05-16T05:15:37;14.70;99.90
39983;DHT22;25670;44.782;10.356;2023-05-16T05:18:03;14.60;99.90
39983;DHT22;25670;44.782;10.356;2023-05-16T05:20:30;14.50;99.90
39983;DHT22;25670;44.782;10.356;2023-05-16T05:22:56;14.50;99.90
39983;DHT22;25670;44.782;10.356;2023-05-16T05:27:48;14.40;99.90
39983;DHT22;25670;44.782;10.356;2023-05-16T05:30:15;14.50;99.90
39983;DHT22;25670;44.782;10.356;2023-05-16T05:35:07;14.30;99.90
39983;DHT22;25670;44.782;10.356;2023-05-16T05:40:01;14.10;99.90
39983;DHT22;25670;44.782;10.356;2023-05-16T05:44:54;13.90;99.90
39983;DHT22;25670;44.782;10.356;2023-05-16T05:47:20;14.10;99.90
39983;DHT22;25670;44.782;10.356;2023-05-16T05:49:47;13.70;99.90
39983;DHT22;25670;44.782;10.356;2023-05-16T05:52:13;13.60;99.90
39983;DHT22;25670;44.782;10.356;2023-05-16T05:54:39;13.60;99.90
39983;DHT22;25670;44.782;10.356;2023-05-16T05:57:05;13.50;99.90
39983;DHT22;25670;44.782;10.356;2023-05-16T05:59:32;13.40;99.90
39983;DHT22;25670;44.782;10.356;2023-05-16T06:01:59;13.50;99.90
39983;DHT22;25670;44.782;10.356;2023-05-16T06:06:51;13.70;99.90
39983;DHT22;25670;44.782;10.356;2023-05-16T06:09:18;13.70;99.90
39983;DHT22;25670;44.782;10.356;2023-05-16T06:11:44;13.70;99.90
39983;DHT22;25670;44.782;10.356;2023-05-16T06:14:11;13.70;99.90
39983;DHT22;25670;44.782;10.356;2023-05-16T06:19:05;13.60;99.90
39983;DHT22;25670;44.782;10.356;2023-05-16T06:21:31;13.70;99.90
39983;DHT22;25670;44.782;10.356;2023-05-16T06:23:58;13.70;99.90
39983;DHT22;25670;44.782;10.356;2023-05-16T06:26:24;13.60;99.90
39983;DHT22;25670;44.782;10.356;2023-05-16T06:28:50;13.50;99.90
39983;DHT22;25670;44.782;10.356;2023-05-16T06:31:17;13.40;99.90
39983;DHT22;25670;44.782;10.356;2023-05-16T06:33:43;13.50;99.90
39983;DHT22;25670;44.782;10.356;2023-05-16T06:36:09;13.50;99.90
39983;DHT22;25670;44.782;10.356;2023-05-16T06:38:36;13.60;99.90
39983;DHT22;25670;44.782;10.356;2023-05-16T06:41:02;13.60;99.90
39983;DHT22;25670;44.782;10.356;2023-05-16T06:43:28;13.50;99.90
39983;DHT22;25670;44.782;10.356;2023-05-16T06:48:21;13.60;99.90
39983;DHT22;25670;44.782;10.356;2023-05-16T06:50:48;13.70;99.90
39983;DHT22;25670;44.782;10.356;2023-05-16T06:53:17;13.70;99.90
39983;DHT22;25670;44.782;10.356;2023-05-16T06:55:44;13.70;99.90
39983;DHT22;25670;44.782;10.356;2023-05-16T07:00:37;13.90;99.90
39983;DHT22;25670;44.782;10.356;2023-05-16T07:03:03;13.90;99.90
39983;DHT22;25670;44.782;10.356;2023-05-16T07:05:30;14.10;99.90
39983;DHT22;25670;44.782;10.356;2023-05-16T07:07:56;14.20;99.90
39983;DHT22;25670;44.782;10.356;2023-05-16T07:10:22;14.10;99.90
39983;DHT22;25670;44.782;10.356;2023-05-16T07:12:48;14.30;99.90
39983;DHT22;25670;44.782;10.356;2023-05-16T07:15:15;14.10;99.90
39983;DHT22;25670;44.782;10.356;2023-05-16T07:17:41;13.90;99.90
39983;DHT22;25670;44.782;10.356;2023-05-16T07:20:07;13.80;99.90
39983;DHT22;25670;44.782;10.356;2023-05-16T07:22:38;13.90;99.90
39983;DHT22;25670;44.782;10.356;2023-05-16T07:25:05;13.80;99.90
39983;DHT22;25670;44.782;10.356;2023-05-16T07:27:40;13.80;99.90
39983;DHT22;25670;44.782;10.356;2023-05-16T07:30:11;13.80;99.90
39983;DHT22;25670;44.782;10.356;2023-05-16T07:32:38;13.80;99.90
39983;DHT22;25670;44.782;10.356;2023-05-16T07:35:04;13.90;99.90
39983;DHT22;25670;44.782;10.356;2023-05-16T07:37:31;13.90;99.90
39983;DHT22;25670;44.782;10.356;2023-05-16T07:39:57;14.00;99.90
39983;DHT22;25670;44.782;10.356;2023-05-16T07:42:23;14.00;99.90
39983;DHT22;25670;44.782;10.356;2023-05-16T07:44:50;14.00;99.90
39983;DHT22;25670;44.782;10.356;2023-05-16T07:49:42;13.90;99.90
39983;DHT22;25670;44.782;10.356;2023-05-16T07:52:08;13.90;99.90
39983;DHT22;25670;44.782;10.356;2023-05-16T07:54:35;14.00;99.90
39983;DHT22;25670;44.782;10.356;2023-05-16T07:57:01;14.00;99.90
39983;DHT22;25670;44.782;10.356;2023-05-16T07:59:28;14.00;99.90
39983;DHT22;25670;44.782;10.356;2023-05-16T08:01:54;14.10;99.90
39983;DHT22;25670;44.782;10.356;2023-05-16T08:04:21;14.20;99.90
39983;DHT22;25670;44.782;10.356;2023-05-16T08:06:48;14.30;99.90
39983;DHT22;25670;44.782;10.356;2023-05-16T08:09:14;14.40;99.90
39983;DHT22;25670;44.782;10.356;2023-05-16T08:11:40;14.60;99.90
39983;DHT22;25670;44.782;10.356;2023-05-16T08:14:10;14.70;99.90
39983;DHT22;25670;44.782;10.356;2023-05-16T08:16:36;14.60;99.90
39983;DHT22;25670;44.782;10.356;2023-05-16T08:19:02;14.70;99.90
39983;DHT22;25670;44.782;10.356;2023-05-16T08:21:29;14.70;99.90
39983;DHT22;25670;44.782;10.356;2023-05-16T08:23:56;14.70;99.90
39983;DHT22;25670;44.782;10.356;2023-05-16T08:26:23;14.80;99.90
39983;DHT22;25670;44.782;10.356;2023-05-16T08:28:49;14.70;99.90
39983;DHT22;25670;44.782;10.356;2023-05-16T08:31:15;14.80;99.90
39983;DHT22;25670;44.782;10.356;2023-05-16T08:33:42;14.70;99.90
39983;DHT22;25670;44.782;10.356;2023-05-16T08:36:11;14.70;99.90
39983;DHT22;25670;44.782;10.356;2023-05-16T08:38:37;14.90;99.90
39983;DHT22;25670;44.782;10.356;2023-05-16T08:41:03;15.00;99.90
39983;DHT22;25670;44.782;10.356;2023-05-16T08:43:29;15.00;99.90
39983;DHT22;25670;44.782;10.356;2023-05-16T08:45:56;14.90;99.90
39983;DHT22;25670;44.782;10.356;2023-05-16T08:48:23;15.00;99.90
39983;DHT22;25670;44.782;10.356;2023-05-16T08:50:49;15.10;99.90
39983;DHT22;25670;44.782;10.356;2023-05-16T08:53:20;15.20;99.90
39983;DHT22;25670;44.782;10.356;2023-05-16T08:55:47;15.20;99.90
39983;DHT22;25670;44.782;10.356;2023-05-16T08:58:15;15.20;99.90
39983;DHT22;25670;44.782;10.356;2023-05-16T09:00:41;15.30;99.90
39983;DHT22;25670;44.782;10.356;2023-05-16T09:03:08;15.30;99.90
39983;DHT22;25670;44.782;10.356;2023-05-16T09:05:34;15.30;99.90
39983;DHT22;25670;44.782;10.356;2023-05-16T09:08:01;15.30;99.90
39983;DHT22;25670;44.782;10.356;2023-05-16T09:12:54;15.30;99.90
39983;DHT22;25670;44.782;10.356;2023-05-16T09:15:20;15.40;99.90
39983;DHT22;25670;44.782;10.356;2023-05-16T09:17:47;15.40;99.90
39983;DHT22;25670;44.782;10.356;2023-05-16T09:20:18;15.30;99.90
39983;DHT22;25670;44.782;10.356;2023-05-16T09:22:52;15.00;99.90
39983;DHT22;25670;44.782;10.356;2023-05-16T09:25:19;14.90;99.90
39983;DHT22;25670;44.782;10.356;2023-05-16T09:27:46;14.90;99.90
39983;DHT22;25670;44.782;10.356;2023-05-16T09:30:15;14.90;99.90
39983;DHT22;25670;44.782;10.356;2023-05-16T09:32:46;14.90;99.90
39983;DHT22;25670;44.782;10.356;2023-05-16T09:35:15;14.90;99.90
39983;DHT22;25670;44.782;10.356;2023-05-16T09:37:48;15.00;99.90
39983;DHT22;25670;44.782;10.356;2023-05-16T09:40:15;14.90;99.90
39983;DHT22;25670;44.782;10.356;2023-05-16T09:42:45;14.90;99.90
39983;DHT22;25670;44.782;10.356;2023-05-16T09:45:12;14.80;99.90
39983;DHT22;25670;44.782;10.356;2023-05-16T09:47:39;14.80;99.90
39983;DHT22;25670;44.782;10.356;2023-05-16T09:50:14;14.90;99.90
39983;DHT22;25670;44.782;10.356;2023-05-16T09:52:42;15.00;99.90
39983;DHT22;25670;44.782;10.356;2023-05-16T09:55:09;15.10;99.90
39983;DHT22;25670;44.782;10.356;2023-05-16T09:57:39;15.10;99.90
39983;DHT22;25670;44.782;10.356;2023-05-16T10:00:06;15.20;99.90
39983;DHT22;25670;44.782;10.356;2023-05-16T10:02:36;15.20;99.90
39983;DHT22;25670;44.782;10.356;2023-05-16T10:05:03;15.20;99.90
39983;DHT22;25670;44.782;10.356;2023-05-16T10:07:30;15.30;99.90
39983;DHT22;25670;44.782;10.356;2023-05-16T10:10:00;15.40;99.90
39983;DHT22;25670;44.782;10.356;2023-05-16T10:14:58;15.40;99.90
39983;DHT22;25670;44.782;10.356;2023-05-16T10:17:26;15.60;99.90
39983;DHT22;25670;44.782;10.356;2023-05-16T10:19:53;15.90;99.90
39983;DHT22;25670;44.782;10.356;2023-05-16T10:22:21;16.00;99.90
39983;DHT22;25670;44.782;10.356;2023-05-16T10:25:03;16.00;99.90
39983;DHT22;25670;44.782;10.356;2023-05-16T10:27:33;15.80;99.90
39983;DHT22;25670;44.782;10.356;2023-05-16T10:30:01;15.70;99.90
39983;DHT22;25670;44.782;10.356;2023-05-16T10:34:54;15.60;99.90
39983;DHT22;25670;44.782;10.356;2023-05-16T10:37:22;15.90;99.90
39983;DHT22;25670;44.782;10.356;2023-05-16T10:39:49;15.90;99.90
39983;DHT22;25670;44.782;10.356;2023-05-16T10:42:16;16.10;99.90
39983;DHT22;25670;44.782;10.356;2023-05-16T10:44:43;16.30;99.90
39983;DHT22;25670;44.782;10.356;2023-05-16T10:47:09;16.30;99.90
39983;DHT22;25670;44.782;10.356;2023-05-16T10:49:39;16.40;99.90
39983;DHT22;25670;44.782;10.356;2023-05-16T10:52:10;16.40;99.90
39983;DHT22;25670;44.782;10.356;2023-05-16T10:54:50;16.40;99.90
39983;DHT22;25670;44.782;10.356;2023-05-16T10:57:22;16.30;99.90
39983;DHT22;25670;44.782;10.356;2023-05-16T10:59:50;16.20;99.90
39983;DHT22;25670;44.782;10.356;2023-05-16T11:02:30;16.10;99.90
39983;DHT22;25670;44.782;10.356;2023-05-16T11:05:01;15.90;99.90
39983;DHT22;25670;44.782;10.356;2023-05-16T11:07:33;15.90;99.90
39983;DHT22;25670;44.782;10.356;2023-05-16T11:10:07;15.80;99.90
39983;DHT22;25670;44.782;10.356;2023-05-16T11:12:49;15.80;99.90
39983;DHT22;25670;44.782;10.356;2023-05-16T11:15:22;16.00;99.90
39983;DHT22;25670;44.782;10.356;2023-05-16T11:17:49;16.00;99.90
39983;DHT22;25670;44.782;10.356;2023-05-16T11:20:29;16.00;99.90
39983;DHT22;25670;44.782;10.356;2023-05-16T11:25:44;15.90;99.90
39983;DHT22;25670;44.782;10.356;2023-05-16T11:28:12;15.80;99.90
39983;DHT22;25670;44.782;10.356;2023-05-16T11:30:47;15.70;99.90
39983;DHT22;25670;44.782;10.356;2023-05-16T11:33:15;15.60;99.90
39983;DHT22;25670;44.782;10.356;2023-05-16T11:35:42;15.60;99.90
39983;DHT22;25670;44.782;10.356;2023-05-16T11:38:15;15.70;99.90
39983;DHT22;25670;44.782;10.356;2023-05-16T11:40:42;15.60;99.90
39983;DHT22;25670;44.782;10.356;2023-05-16T11:43:09;15.70;99.90
39983;DHT22;25670;44.782;10.356;2023-05-16T11:45:36;15.90;99.90
39983;DHT22;25670;44.782;10.356;2023-05-16T11:48:03;16.10;99.90
39983;DHT22;25670;44.782;10.356;2023-05-16T11:50:29;16.10;99.90
39983;DHT22;25670;44.782;10.356;2023-05-16T11:52:55;16.30;99.90
39983;DHT22;25670;44.782;10.356;2023-05-16T11:55:27;16.40;99.90
39983;DHT22;25670;44.782;10.356;2023-05-16T11:57:57;16.50;99.90
39983;DHT22;25670;44.782;10.356;2023-05-16T12:00:25;16.60;99.90
39983;DHT22;25670;44.782;10.356;2023-05-16T12:02:53;16.70;99.90
39983;DHT22;25670;44.782;10.356;2023-05-16T12:05:20;16.80;99.90
39983;DHT22;25670;44.782;10.356;2023-05-16T12:07:51;17.20;99.90
39983;DHT22;25670;44.782;10.356;2023-05-16T12:10:19;17.40;99.90
39983;DHT22;25670;44.782;10.356;2023-05-16T12:12:48;17.60;99.90
39983;DHT22;25670;44.782;10.356;2023-05-16T12:15:17;17.70;99.90
39983;DHT22;25670;44.782;10.356;2023-05-16T12:17:44;17.70;99.90
39983;DHT22;25670;44.782;10.356;2023-05-16T12:20:11;17.80;99.90
39983;DHT22;25670;44.782;10.356;2023-05-16T12:22:40;17.90;99.90
39983;DHT22;25670;44.782;10.356;2023-05-16T12:25:25;18.00;99.90
39983;DHT22;25670;44.782;10.356;2023-05-16T12:27:53;17.90;99.90
39983;DHT22;25670;44.782;10.356;2023-05-16T12:30:24;17.80;99.90
39983;DHT22;25670;44.782;10.356;2023-05-16T12:33:08;17.30;99.90
39983;DHT22;25670;44.782;10.356;2023-05-16T12:35:38;17.20;99.90
39983;DHT22;25670;44.782;10.356;2023-05-16T12:38:06;17.40;99.90
39983;DHT22;25670;44.782;10.356;2023-05-16T12:40:34;17.30;99.90
39983;DHT22;25670;44.782;10.356;2023-05-16T12:43:01;17.30;99.90
39983;DHT22;25670;44.782;10.356;2023-05-16T12:45:28;17.40;99.90
39983;DHT22;25670;44.782;10.356;2023-05-16T12:47:54;17.40;99.90
39983;DHT22;25670;44.782;10.356;2023-05-16T12:50:20;17.40;99.90
39983;DHT22;25670;44.782;10.356;2023-05-16T12:52:57;17.40;99.90
39983;DHT22;25670;44.782;10.356;2023-05-16T12:55:24;17.50;99.90
39983;DHT22;25670;44.782;10.356;2023-05-16T13:00:19;16.90;99.90
39983;DHT22;25670;44.782;10.356;2023-05-16T13:02:46;16.80;99.90
39983;DHT22;25670;44.782;10.356;2023-05-16T13:05:13;16.70;99.90
39983;DHT22;25670;44.782;10.356;2023-05-16T13:07:40;16.60;99.90
39983;DHT22;25670;44.782;10.356;2023-05-16T13:10:10;16.40;99.90
39983;DHT22;25670;44.782;10.356;2023-05-16T13:12:37;16.50;99.90
39983;DHT22;25670;44.782;10.356;2023-05-16T13:15:05;16.30;99.90
39983;DHT22;25670;44.782;10.356;2023-05-16T13:17:40;16.10;99.90
39983;DHT22;25670;44.782;10.356;2023-05-16T13:20:07;16.10;99.90
39983;DHT22;25670;44.782;10.356;2023-05-16T13:22:35;16.20;99.90
39983;DHT22;25670;44.782;10.356;2023-05-16T13:25:03;16.30;99.90
39983;DHT22;25670;44.782;10.356;2023-05-16T13:27:31;16.40;99.90
39983;DHT22;25670;44.782;10.356;2023-05-16T13:29:57;16.50;99.90
39983;DHT22;25670;44.782;10.356;2023-05-16T13:32:24;16.50;99.90
39983;DHT22;25670;44.782;10.356;2023-05-16T13:37:17;16.50;99.90
39983;DHT22;25670;44.782;10.356;2023-05-16T13:39:43;16.40;99.90
39983;DHT22;25670;44.782;10.356;2023-05-16T13:42:10;16.40;99.90
39983;DHT22;25670;44.782;10.356;2023-05-16T13:44:36;16.50;99.90
39983;DHT22;25670;44.782;10.356;2023-05-16T13:47:03;16.40;99.90
39983;DHT22;25670;44.782;10.356;2023-05-16T13:49:29;16.40;99.90
39983;DHT22;25670;44.782;10.356;2023-05-16T13:51:55;16.30;99.90
39983;DHT22;25670;44.782;10.356;2023-05-16T13:54:23;16.10;99.90
39983;DHT22;25670;44.782;10.356;2023-05-16T13:56:49;16.10;99.90
39983;DHT22;25670;44.782;10.356;2023-05-16T13:59:15;16.00;99.90
39983;DHT22;25670;44.782;10.356;2023-05-16T14:01:41;16.00;99.90
39983;DHT22;25670;44.782;10.356;2023-05-16T14:04:08;16.10;99.90
39983;DHT22;25670;44.782;10.356;2023-05-16T14:06:34;16.00;99.90
39983;DHT22;25670;44.782;10.356;2023-05-16T14:09:01;16.00;99.90
39983;DHT22;25670;44.782;10.356;2023-05-16T14:11:27;16.10;99.90
39983;DHT22;25670;44.782;10.356;2023-05-16T14:13:53;16.20;99.90
39983;DHT22;25670;44.782;10.356;2023-05-16T14:16:20;16.30;99.90
39983;DHT22;25670;44.782;10.356;2023-05-16T14:18:46;16.40;99.90
39983;DHT22;25670;44.782;10.356;2023-05-16T14:21:13;16.40;99.90
39983;DHT22;25670;44.782;10.356;2023-05-16T14:23:39;16.30;99.90
39983;DHT22;25670;44.782;10.356;2023-05-16T14:26:06;16.30;99.90
39983;DHT22;25670;44.782;10.356;2023-05-16T14:28:32;18.30;99.90
39983;DHT22;25670;44.782;10.356;2023-05-16T14:30:59;16.30;99.90
39983;DHT22;25670;44.782;10.356;2023-05-16T14:33:25;16.20;99.90
39983;DHT22;25670;44.782;10.356;2023-05-16T14:35:52;16.20;99.90
39983;DHT22;25670;44.782;10.356;2023-05-16T14:40:45;16.10;99.90
39983;DHT22;25670;44.782;10.356;2023-05-16T14:43:12;16.00;99.90
39983;DHT22;25670;44.782;10.356;2023-05-16T14:45:38;16.00;99.90
39983;DHT22;25670;44.782;10.356;2023-05-16T14:48:05;16.00;99.90
39983;DHT22;25670;44.782;10.356;2023-05-16T14:50:32;16.00;99.90
39983;DHT22;25670;44.782;10.356;2023-05-16T14:52:58;16.00;99.90
39983;DHT22;25670;44.782;10.356;2023-05-16T14:55:24;16.00;99.90
39983;DHT22;25670;44.782;10.356;2023-05-16T14:57:51;16.00;99.90
39983;DHT22;25670;44.782;10.356;2023-05-16T15:00:22;16.00;99.90
39983;DHT22;25670;44.782;10.356;2023-05-16T15:02:48;15.90;99.90
39983;DHT22;25670;44.782;10.356;2023-05-16T15:05:14;16.00;99.90
39983;DHT22;25670;44.782;10.356;2023-05-16T15:07:41;16.00;99.90
39983;DHT22;25670;44.782;10.356;2023-05-16T15:10:09;16.10;99.90
39983;DHT22;25670;44.782;10.356;2023-05-16T15:12:36;16.10;99.90
39983;DHT22;25670;44.782;10.356;2023-05-16T15:15:02;16.10;99.90
39983;DHT22;25670;44.782;10.356;2023-05-16T15:19:55;16.20;99.90
39983;DHT22;25670;44.782;10.356;2023-05-16T15:24:49;16.10;99.90
39983;DHT22;25670;44.782;10.356;2023-05-16T15:27:15;16.10;99.90
39983;DHT22;25670;44.782;10.356;2023-05-16T15:29:41;16.00;99.90
39983;DHT22;25670;44.782;10.356;2023-05-16T15:34:35;16.10;99.90
39983;DHT22;25670;44.782;10.356;2023-05-16T15:37:02;16.20;99.90
39983;DHT22;25670;44.782;10.356;2023-05-16T15:41:55;16.50;99.90
39983;DHT22;25670;44.782;10.356;2023-05-16T15:44:21;16.60;99.90
39983;DHT22;25670;44.782;10.356;2023-05-16T15:46:47;16.70;99.90
39983;DHT22;25670;44.782;10.356;2023-05-16T15:49:13;16.60;99.90
39983;DHT22;25670;44.782;10.356;2023-05-16T15:51:39;16.30;99.90
39983;DHT22;25670;44.782;10.356;2023-05-16T15:54:07;16.10;99.90
39983;DHT22;25670;44.782;10.356;2023-05-16T15:56:33;16.00;99.90
39983;DHT22;25670;44.782;10.356;2023-05-16T15:58:59;16.00;99.90
39983;DHT22;25670;44.782;10.356;2023-05-16T16:01:25;15.90;99.90
39983;DHT22;25670;44.782;10.356;2023-05-16T16:03:51;15.90;99.90
39983;DHT22;25670;44.782;10.356;2023-05-16T16:06:18;15.90;99.90
39983;DHT22;25670;44.782;10.356;2023-05-16T16:08:44;15.90;99.90
39983;DHT22;25670;44.782;10.356;2023-05-16T16:11:10;15.90;99.90
39983;DHT22;25670;44.782;10.356;2023-05-16T16:13:36;16.00;99.90
39983;DHT22;25670;44.782;10.356;2023-05-16T16:16:03;16.00;99.90
39983;DHT22;25670;44.782;10.356;2023-05-16T16:18:29;16.00;99.90
39983;DHT22;25670;44.782;10.356;2023-05-16T16:20:55;16.00;99.90
39983;DHT22;25670;44.782;10.356;2023-05-16T16:23:22;16.00;99.90
39983;DHT22;25670;44.782;10.356;2023-05-16T16:25:48;16.00;99.90
39983;DHT22;25670;44.782;10.356;2023-05-16T16:28:15;16.00;99.90
39983;DHT22;25670;44.782;10.356;2023-05-16T16:30:41;16.00;99.90